createdAt,value
2019-02-10T00:01:07.032Z,7.70
2019-02-10T00:06:07.012Z,8.40
2019-02-10T00:11:07.002Z,8.40
2019-02-10T00:16:06.992Z,7.50
2019-02-10T00:21:07.064Z,7.40
2019-02-10T00:26:07.303Z,7.80
2019-02-10T00:31:07.013Z,8.40
2019-02-10T00:36:07.448Z,8.20
2019-02-10T00:41:13.313Z,8.40
2019-02-10T00:46:07.480Z,8.40
2019-02-10T00:51:07.518Z,7.30
2019-02-10T00:56:07.545Z,8.10
2019-02-10T01:01:07.050Z,7.60
2019-02-10T01:06:07.357Z,7.80
2019-02-10T01:11:07.050Z,8.00
2019-02-10T01:16:07.006Z,8.90
2019-02-10T01:21:07.065Z,7.90
2019-02-10T01:26:07.072Z,8.20
2019-02-10T01:31:07.504Z,7.60
2019-02-10T01:36:07.065Z,7.10
2019-02-10T01:41:07.077Z,7.60
2019-02-10T01:46:07.419Z,7.60
2019-02-10T01:51:07.442Z,7.10
2019-02-10T01:56:07.081Z,7.40
2019-02-10T02:01:07.525Z,7.60
2019-02-10T02:06:07.016Z,7.50
2019-02-10T02:11:07.388Z,7.90
2019-02-10T02:16:07.091Z,7.30
2019-02-10T02:21:07.089Z,7.50
2019-02-10T02:26:07.034Z,7.00
2019-02-10T02:31:07.012Z,7.40
2019-02-10T02:36:07.091Z,7.20
2019-02-10T02:41:07.101Z,7.30
2019-02-10T02:46:07.192Z,7.10
2019-02-10T02:51:07.418Z,7.30
2019-02-10T02:56:07.432Z,7.20
2019-02-10T03:01:07.476Z,6.80
2019-02-10T03:06:07.517Z,7.20
2019-02-10T03:11:07.071Z,7.60
2019-02-10T03:16:07.107Z,7.20
2019-02-10T03:21:07.096Z,7.00
2019-02-10T03:26:07.384Z,8.60
2019-02-10T03:31:07.417Z,7.50
2019-02-10T03:36:07.091Z,7.50
2019-02-10T03:41:07.113Z,7.00
2019-02-10T03:46:07.107Z,7.00
2019-02-10T03:51:07.098Z,7.20
2019-02-10T03:56:07.120Z,7.10
2019-02-10T04:01:07.086Z,7.50
2019-02-10T04:06:07.204Z,7.50
2019-02-10T04:11:07.143Z,7.00
2019-02-10T04:16:07.394Z,6.90
2019-02-10T04:21:07.139Z,7.30
2019-02-10T04:26:07.129Z,7.20
2019-02-10T04:31:07.558Z,7.70
2019-02-10T04:36:07.133Z,7.30
2019-02-10T04:41:07.108Z,6.90
2019-02-10T04:46:07.127Z,6.90
2019-02-10T04:51:07.093Z,6.90
2019-02-10T04:56:07.444Z,7.40
2019-02-10T05:01:07.148Z,7.00
2019-02-10T05:06:07.142Z,7.00
2019-02-10T05:11:07.423Z,6.50
2019-02-10T05:16:07.110Z,6.80
2019-02-10T05:21:07.149Z,7.30
2019-02-10T05:26:07.473Z,7.00
2019-02-10T05:31:07.180Z,7.20
2019-02-10T05:36:07.157Z,6.70
2019-02-10T05:41:09.483Z,6.90
2019-02-10T05:46:07.123Z,6.90
2019-02-10T05:51:07.190Z,7.00
2019-02-10T05:56:07.501Z,6.70
2019-02-10T06:01:07.168Z,6.90
2019-02-10T06:06:07.159Z,6.70
2019-02-10T06:11:07.130Z,7.30
2019-02-10T06:16:07.187Z,6.50
2019-02-10T06:21:07.405Z,7.00
2019-02-10T06:26:07.120Z,6.90
2019-02-10T06:31:07.186Z,6.90
2019-02-10T06:36:07.173Z,7.20
2019-02-10T06:41:07.566Z,6.80
2019-02-10T06:46:07.144Z,6.90
2019-02-10T06:51:07.711Z,6.90
2019-02-10T06:56:07.187Z,6.50
2019-02-10T07:01:07.210Z,6.90
2019-02-10T07:06:07.704Z,6.60
2019-02-10T07:11:07.514Z,6.10
2019-02-10T07:16:07.920Z,6.50
2019-02-10T07:21:08.564Z,6.80
2019-02-10T07:26:07.209Z,6.60
2019-02-10T07:31:07.177Z,6.40
2019-02-10T07:36:07.497Z,6.40
2019-02-10T07:41:07.736Z,6.60
2019-02-10T07:46:07.219Z,6.50
2019-02-10T07:51:07.877Z,6.50
2019-02-10T07:56:07.839Z,6.90
2019-02-10T08:01:07.621Z,6.10
2019-02-10T08:06:07.910Z,6.70
2019-02-10T08:11:07.227Z,6.70
2019-02-10T08:16:08.807Z,7.20
2019-02-10T08:21:07.245Z,6.80
2019-02-10T08:26:07.859Z,7.20
2019-02-10T08:31:07.951Z,6.60
2019-02-10T08:36:08.247Z,6.30
2019-02-10T08:41:07.198Z,6.40
2019-02-10T08:46:07.349Z,6.80
2019-02-10T08:51:07.236Z,6.40
2019-02-10T08:56:07.205Z,7.00
2019-02-10T09:01:07.604Z,6.60
2019-02-10T09:06:07.161Z,6.70
2019-02-10T09:11:07.216Z,9.90
2019-02-10T09:16:07.213Z,9.10
2019-02-10T09:21:07.239Z,12.20
2019-02-10T09:26:07.231Z,8.60
2019-02-10T09:31:07.255Z,9.80
2019-02-10T09:36:07.546Z,9.50
2019-02-10T09:41:07.291Z,9.00
2019-02-10T09:46:07.196Z,7.40
2019-02-10T09:51:07.239Z,9.10
2019-02-10T09:56:07.526Z,10.70
2019-02-10T10:01:07.228Z,9.50
2019-02-10T10:06:07.222Z,8.80
2019-02-10T10:11:07.254Z,7.90
2019-02-10T10:16:07.284Z,10.00
2019-02-10T10:21:07.397Z,9.20
2019-02-10T10:26:07.193Z,9.00
2019-02-10T10:31:07.262Z,9.10
2019-02-10T10:36:07.294Z,8.00
2019-02-10T10:41:07.308Z,7.90
2019-02-10T10:46:07.358Z,8.80
2019-02-10T10:51:07.242Z,8.40
2019-02-10T10:56:07.255Z,8.00
2019-02-10T11:01:07.270Z,10.50
2019-02-10T11:06:07.395Z,7.90
2019-02-10T11:11:07.302Z,10.00
2019-02-10T11:16:07.318Z,7.90
2019-02-10T11:21:07.262Z,10.10
2019-02-10T11:26:07.463Z,8.30
2019-02-10T11:31:07.275Z,7.70
2019-02-10T11:36:07.900Z,8.60
2019-02-10T11:41:07.282Z,8.50
2019-02-10T11:46:07.272Z,9.60
2019-02-10T11:51:07.466Z,9.30
2019-02-10T11:56:07.300Z,9.40
2019-02-10T12:01:07.288Z,8.80
2019-02-10T12:06:07.322Z,8.20
2019-02-10T12:11:07.252Z,8.50
2019-02-10T12:16:07.358Z,8.00
2019-02-10T12:21:07.285Z,9.50
2019-02-10T12:26:07.311Z,7.90
2019-02-10T12:31:07.319Z,9.20
2019-02-10T12:36:07.328Z,8.50
2019-02-10T12:41:07.467Z,8.10
2019-02-10T12:46:07.308Z,7.90
2019-02-10T12:51:07.313Z,8.40
2019-02-10T12:56:07.301Z,7.60
2019-02-10T13:01:07.342Z,8.70
2019-02-10T13:06:07.308Z,8.10
2019-02-10T13:11:07.312Z,7.30
2019-02-10T13:16:07.336Z,7.80
2019-02-10T13:21:07.352Z,7.10
2019-02-10T13:26:07.312Z,7.60
2019-02-10T13:31:07.345Z,7.30
2019-02-10T13:36:07.359Z,7.50
2019-02-10T13:41:07.622Z,7.60
2019-02-10T13:46:07.286Z,7.30
2019-02-10T13:51:07.350Z,7.70
2019-02-10T13:56:07.567Z,7.40
2019-02-10T14:01:07.311Z,7.20
2019-02-10T14:06:07.587Z,7.60
2019-02-10T14:11:07.367Z,7.40
2019-02-10T14:16:07.368Z,7.50
2019-02-10T14:21:07.319Z,8.20
2019-02-10T14:26:07.359Z,7.10
2019-02-10T14:31:07.634Z,7.30
2019-02-10T14:36:07.512Z,7.00
2019-02-10T14:41:07.299Z,7.10
2019-02-10T14:46:07.390Z,6.70
2019-02-10T14:51:07.342Z,6.60
2019-02-10T14:56:07.349Z,6.80
2019-02-10T15:01:07.705Z,7.10
2019-02-10T15:06:07.326Z,6.90
2019-02-10T15:11:07.364Z,6.90
2019-02-10T15:16:07.319Z,7.00
2019-02-10T15:21:07.380Z,6.40
2019-02-10T15:26:07.380Z,6.30
2019-02-10T15:31:07.400Z,7.30
2019-02-10T15:36:07.388Z,6.70
2019-02-10T15:41:07.401Z,6.40
2019-02-10T15:46:07.334Z,6.90
2019-02-10T15:51:07.760Z,6.60
2019-02-10T15:56:07.349Z,6.80
2019-02-10T16:01:07.669Z,6.40
2019-02-10T16:06:07.873Z,6.50
2019-02-10T16:11:07.390Z,6.30
2019-02-10T16:16:07.383Z,6.60
2019-02-10T16:21:07.671Z,6.40
2019-02-10T16:26:07.446Z,5.80
2019-02-10T16:31:07.398Z,6.10
2019-02-10T16:36:07.845Z,6.00
2019-02-10T16:41:07.371Z,5.60
2019-02-10T16:46:07.574Z,5.70
2019-02-10T16:51:07.377Z,5.70
2019-02-10T16:56:07.414Z,5.80
2019-02-10T17:01:07.376Z,5.60
2019-02-10T17:06:07.841Z,6.10
2019-02-10T17:11:14.219Z,5.70
2019-02-10T17:16:07.789Z,5.40
2019-02-10T17:21:07.815Z,5.60
2019-02-10T17:26:07.399Z,5.30
2019-02-10T17:31:07.723Z,5.50
2019-02-10T17:36:07.431Z,5.60
2019-02-10T17:41:07.475Z,5.50
2019-02-10T17:46:07.386Z,5.20
2019-02-10T17:51:07.429Z,5.10
2019-02-10T17:56:07.822Z,5.50
2019-02-10T18:01:07.497Z,5.10
2019-02-10T18:06:07.866Z,5.20
2019-02-10T18:11:07.433Z,4.90
2019-02-10T18:16:07.479Z,4.80
2019-02-10T18:21:07.399Z,5.50
2019-02-10T18:26:07.483Z,5.10
2019-02-10T18:31:07.421Z,5.40
2019-02-10T18:36:07.453Z,5.10
2019-02-10T18:41:07.913Z,4.80
2019-02-10T18:46:07.457Z,5.10
2019-02-10T18:51:07.761Z,5.30
2019-02-10T18:56:07.422Z,4.50
2019-02-10T19:01:07.454Z,4.90
